Time;durP1;ratioP1;P1;durP2;ratioP2;P2;SDS_P1;SDS_P2;PMS_P1;PMS_P2;Temp;Humidity;BMP_temperature;BMP_pressure;BME280_temperature;BME280_humidity;BME280_pressure;Samples;Min_cycle;Max_cycle;Signal;HPM_P1;HPM_P2
2022/05/27 00:01:44;;;;;;;6.70;3.30;;;;;;;12.94;72.25;101269.98;107244;1250;69267;-65
2022/05/27 00:04:13;;;;;;;6.20;3.90;;;;;;;12.94;72.57;101271.52;107275;1251;71475;-62
2022/05/27 00:06:42;;;;;;;6.00;3.90;;;;;;;12.98;72.68;101270.38;107291;1251;60788;-65
2022/05/27 00:09:11;;;;;;;5.50;3.60;;;;;;;13.01;72.78;101269.64;107351;1249;59003;-66
2022/05/27 00:11:40;;;;;;;6.30;4.00;;;;;;;13.07;72.73;101266.89;107370;1251;70948;-65
2022/05/27 00:14:09;;;;;;;6.20;3.70;;;;;;;13.13;72.50;101264.73;107398;1250;70568;-64
2022/05/27 00:16:38;;;;;;;6.10;4.10;;;;;;;13.19;72.25;101260.08;107374;1250;67992;-63
2022/05/27 00:19:07;;;;;;;5.60;3.90;;;;;;;13.28;72.05;101268.36;107338;1251;72348;-64
2022/05/27 00:21:36;;;;;;;6.60;4.20;;;;;;;13.36;70.71;101263.04;107243;1250;61477;-65
2022/05/27 00:24:06;;;;;;;5.90;3.40;;;;;;;13.42;70.61;101260.98;107158;1251;60219;-64
2022/05/27 00:26:35;;;;;;;6.20;3.90;;;;;;;13.49;71.22;101257.31;107296;1251;72950;-64
2022/05/27 00:29:04;;;;;;;7.50;3.80;;;;;;;13.58;70.42;101258.22;107217;1251;69184;-65
2022/05/27 00:31:34;;;;;;;6.90;4.00;;;;;;;13.66;70.51;101257.83;107296;1251;69050;-66
2022/05/27 00:34:03;;;;;;;6.00;4.20;;;;;;;13.71;70.61;101258.26;107286;1248;72793;-66
2022/05/27 00:36:33;;;;;;;4.70;3.70;;;;;;;13.79;70.78;101254.71;107309;1251;61313;-63
2022/05/27 00:39:03;;;;;;;6.40;4.30;;;;;;;13.85;70.69;101254.77;107261;1251;59667;-65
2022/05/27 00:41:32;;;;;;;4.40;3.70;;;;;;;13.89;70.86;101251.83;107262;1250;70915;-65
2022/05/27 00:44:01;;;;;;;5.40;4.10;;;;;;;13.92;71.02;101245.57;107367;1251;70634;-65
2022/05/27 00:46:34;;;;;;;6.20;3.70;;;;;;;13.95;71.11;101244.52;107327;1249;67902;-66
2022/05/27 00:49:15;;;;;;;;;;;;;;;14.01;70.74;101244.92;107237;1250;71514;-65
2022/05/27 00:51:51;;;;;;;6.70;4.20;;;;;;;14.07;70.44;101242.53;107271;1251;63030;-65
2022/05/27 00:54:24;;;;;;;6.50;4.00;;;;;;;14.13;70.50;101236.95;107303;1247;60259;-65
2022/05/27 00:57:09;;;;;;;5.10;3.70;;;;;;;14.20;70.38;101236.96;107088;1251;71686;-65
2022/05/27 00:59:54;;;;;;;6.00;3.80;;;;;;;14.23;71.21;101238.81;107141;1250;72294;-66
2022/05/27 01:02:23;;;;;;;8.10;3.50;;;;;;;14.26;70.88;101238.41;107064;1250;68602;-66
2022/05/27 01:05:02;;;;;;;5.10;3.60;;;;;;;14.28;70.86;101234.22;107167;1250;71900;-66
2022/05/27 01:07:31;;;;;;;4.40;3.50;;;;;;;14.33;70.32;101236.77;107196;1250;61361;-65
2022/05/27 01:10:04;;;;;;;5.90;4.00;;;;;;;14.36;70.97;101233.60;107413;1251;59563;-70
2022/05/27 01:13:20;;;;;;;6.00;3.50;;;;;;;14.39;71.21;101235.45;107228;1251;72460;-68
2022/05/27 01:16:05;;;;;;;5.80;3.80;;;;;;;14.43;71.15;101232.70;107376;1249;73106;-65
2022/05/27 01:22:02;;;;;;;6.60;4.10;;;;;;;14.47;71.13;101235.31;107553;1251;73291;-65
2022/05/27 01:25:05;;;;;;;7.20;4.10;;;;;;;14.49;71.04;101233.05;107697;1250;60911;-65
2022/05/27 01:27:56;;;;;;;7.70;3.80;;;;;;;14.51;71.39;101232.34;107552;1250;60630;-71
2022/05/27 01:30:56;;;;;;;7.50;3.60;;;;;;;14.53;71.58;101228.55;107399;1250;73535;-67
2022/05/27 01:33:44;;;;;;;6.00;3.30;;;;;;;14.54;71.39;101228.66;107466;1251;71926;-66
2022/05/27 01:36:37;;;;;;;7.40;4.00;;;;;;;14.52;72.06;101231.08;107296;1251;71542;-67
2022/05/27 01:39:24;;;;;;;9.00;4.40;;;;;;;14.53;71.86;101229.08;107284;1251;74556;-67
2022/05/27 01:42:10;;;;;;;8.10;5.20;;;;;;;14.53;71.66;101228.38;107237;1250;64019;-66
2022/05/27 01:44:53;;;;;;;7.40;4.30;;;;;;;14.53;71.46;101226.75;107141;1251;61958;-68
2022/05/27 01:48:07;;;;;;;6.70;3.80;;;;;;;14.50;72.44;101224.39;107247;1249;71855;-64
2022/05/27 01:51:14;;;;;;;6.20;3.90;;;;;;;14.47;73.06;101224.77;107131;1251;70373;-65
2022/05/27 01:53:54;;;;;;;6.50;4.10;;;;;;;14.45;73.06;101225.95;106872;1251;68024;-65
2022/05/27 01:56:40;;;;;;;5.80;3.90;;;;;;;14.44;72.80;101223.98;107112;1251;72108;-64
2022/05/27 01:59:21;;;;;;;5.50;4.10;;;;;;;14.43;73.39;101226.70;107099;1251;61373;-66
2022/05/27 02:02:00;;;;;;;4.80;3.60;;;;;;;14.43;73.36;101224.25;107096;1251;60506;-66
2022/05/27 02:04:38;;;;;;;6.80;4.30;;;;;;;14.42;74.56;101225.58;107106;1251;71094;-67
2022/05/27 02:07:17;;;;;;;5.80;3.50;;;;;;;14.45;73.56;101228.64;107184;1250;69584;-66
2022/05/27 02:10:30;;;;;;;6.60;3.90;;;;;;;14.42;74.64;101230.08;107123;1250;68713;-66
2022/05/27 02:13:14;;;;;;;5.50;3.90;;;;;;;14.40;74.97;101227.63;107111;1250;73998;-65
2022/05/27 02:15:45;;;;;;;5.60;3.70;;;;;;;14.42;74.99;101230.23;107098;1251;63702;-67
2022/05/27 02:18:57;;;;;;;6.10;3.80;;;;;;;14.45;75.00;101229.16;107211;1250;59984;-67
2022/05/27 02:21:47;;;;;;;8.30;4.20;;;;;;;14.42;75.44;101228.02;107164;1249;72816;-66
2022/05/27 02:24:44;;;;;;;7.70;4.20;;;;;;;14.45;75.08;101226.20;107030;1251;70914;-66
2022/05/27 02:27:22;;;;;;;6.30;4.00;;;;;;;14.49;74.50;101226.27;107309;1250;68762;-64
2022/05/27 02:29:56;;;;;;;7.10;4.00;;;;;;;14.55;74.66;101230.50;107180;1250;73326;-65
2022/05/27 02:32:40;;;;;;;7.10;4.00;;;;;;;14.56;74.65;101234.73;107161;1249;63420;-64
2022/05/27 02:35:20;;;;;;;6.80;4.20;;;;;;;14.56;74.60;101232.08;107190;1250;60032;-65
2022/05/27 02:37:59;;;;;;;7.60;4.10;;;;;;;14.59;74.74;101236.82;107111;1250;71377;-66
2022/05/27 02:40:36;;;;;;;6.00;4.00;;;;;;;14.63;74.54;101232.98;107144;1250;70022;-68
2022/05/27 02:43:15;;;;;;;7.50;4.40;;;;;;;14.63;74.39;101236.27;107047;1250;68491;-67
2022/05/27 02:46:23;;;;;;;8.90;4.40;;;;;;;14.63;74.49;101237.35;107142;1250;73111;-67
2022/05/27 02:49:27;;;;;;;6.70;3.90;;;;;;;14.64;74.51;101237.64;106982;1251;62704;-66
2022/05/27 02:52:12;;;;;;;7.60;4.10;;;;;;;14.68;74.58;101238.39;107197;1250;59192;-66
2022/05/27 02:55:16;;;;;;;5.10;3.70;;;;;;;14.69;74.59;101235.11;107190;1251;72013;-65
2022/05/27 02:57:49;;;;;;;7.50;4.40;;;;;;;14.70;74.36;101239.05;107075;1250;69651;-65
2022/05/27 03:00:24;;;;;;;6.60;4.20;;;;;;;14.76;73.75;101245.20;107067;1250;66925;-67
2022/05/27 03:02:54;;;;;;;6.00;3.70;;;;;;;14.79;73.18;101242.88;106985;1250;74953;-66
2022/05/27 03:05:30;;;;;;;5.40;3.80;;;;;;;14.79;73.91;101244.41;107119;1250;63813;-64
2022/05/27 03:08:33;;;;;;;6.10;3.90;;;;;;;14.83;73.99;101243.13;107061;1250;60652;-64
2022/05/27 03:11:24;;;;;;;5.60;3.60;;;;;;;14.87;73.84;101244.02;107564;1250;74425;-66
2022/05/27 03:14:12;;;;;;;6.30;4.30;;;;;;;14.92;74.16;101246.72;107338;1249;72291;-65
2022/05/27 03:16:58;;;;;;;8.50;4.00;;;;;;;14.97;73.38;101252.45;107198;1250;70172;-64
2022/05/27 03:19:36;;;;;;;5.00;3.30;;;;;;;15.03;72.37;101262.33;107153;1250;73758;-65
2022/05/27 03:22:23;;;;;;;6.10;3.60;;;;;;;15.06;72.20;101267.98;107170;1250;62806;-64
2022/05/27 03:24:55;;;;;;;7.20;3.80;;;;;;;15.12;72.21;101272.96;107227;1250;59476;-66
2022/05/27 03:27:39;;;;;;;10.00;4.40;;;;;;;15.19;72.16;101269.39;107113;1248;74023;-66
2022/05/27 03:30:20;;;;;;;10.40;4.30;;;;;;;15.31;71.57;101271.55;107219;1250;70835;-65
2022/05/27 03:33:36;;;;;;;15.60;5.90;;;;;;;15.44;70.57;101271.06;107093;1250;69791;-68
2022/05/27 03:36:15;;;;;;;14.10;6.00;;;;;;;15.59;70.13;101276.95;107232;1250;74524;-65
2022/05/27 03:39:06;;;;;;;13.60;6.80;;;;;;;15.71;69.45;101275.30;107241;1249;62575;-65
2022/05/27 03:41:52;;;;;;;13.40;6.10;;;;;;;15.78;69.50;101273.42;107240;1250;60314;-66
2022/05/27 03:44:27;;;;;;;16.20;6.10;;;;;;;15.89;68.83;101277.73;107153;1251;72716;-69
2022/05/27 03:46:58;;;;;;;10.40;5.20;;;;;;;16.00;67.73;101276.44;107210;1248;73483;-69
2022/05/27 03:49:28;;;;;;;7.90;5.00;;;;;;;16.03;67.19;101278.48;107164;1250;70281;-69
2022/05/27 03:52:10;;;;;;;9.70;4.90;;;;;;;16.01;67.11;101280.60;107219;1249;71350;-69
2022/05/27 03:54:38;;;;;;;10.80;5.40;;;;;;;15.94;67.27;101286.31;107223;1250;62754;-71
2022/05/27 03:57:08;;;;;;;12.40;5.70;;;;;;;15.88;67.71;101287.34;107247;1249;60967;-72
2022/05/27 03:59:37;;;;;;;8.00;4.90;;;;;;;15.76;67.89;101288.71;107224;1251;72905;-69
2022/05/27 04:02:07;;;;;;;14.10;5.00;;;;;;;15.75;67.87;101284.38;107157;1253;71417;-76
2022/05/27 04:04:36;;;;;;;9.90;4.80;;;;;;;15.74;67.82;101287.44;107216;1250;70582;-69
2022/05/27 04:07:04;;;;;;;8.80;4.20;;;;;;;15.78;67.77;101287.85;107212;1249;74302;-70
2022/05/27 04:09:33;;;;;;;7.70;4.40;;;;;;;15.79;67.82;101286.69;107195;1251;62567;-69
2022/05/27 04:12:04;;;;;;;7.40;3.90;;;;;;;15.81;67.38;101286.88;107287;1249;61616;-70
2022/05/27 04:14:33;;;;;;;7.80;4.20;;;;;;;15.84;67.21;101293.79;107278;1250;72564;-71
2022/05/27 04:19:49;;;;;;;11.10;5.70;;;;;;;15.92;67.36;101287.86;107346;1250;69423;-74
2022/05/27 04:22:18;;;;;;;10.50;5.30;;;;;;;15.95;67.44;101289.05;107186;1250;71246;-66
2022/05/27 04:24:47;;;;;;;8.80;5.80;;;;;;;16.05;67.17;101293.08;107204;1251;60481;-65
2022/05/27 04:27:19;;;;;;;11.80;6.00;;;;;;;16.16;66.81;101294.04;107207;1249;59595;-65
2022/05/27 04:29:50;;;;;;;10.40;5.70;;;;;;;16.28;66.64;101296.02;107842;1249;73792;-67
2022/05/27 04:32:23;;;;;;;10.30;5.50;;;;;;;16.40;66.25;101294.92;109242;1249;72904;-66
2022/05/27 04:34:55;;;;;;;;;;;;;;;16.52;65.86;101295.98;107469;1249;71023;-66
2022/05/27 04:37:25;;;;;;;16.10;5.90;;;;;;;16.65;65.29;101296.92;109318;1249;71762;-68
2022/05/27 04:39:54;;;;;;;13.80;5.80;;;;;;;16.77;64.86;101298.53;109318;1250;60124;-69
2022/05/27 04:42:23;;;;;;;10.40;5.90;;;;;;;16.90;64.29;101303.33;109382;1249;61754;-67
2022/05/27 04:44:52;;;;;;;9.00;6.00;;;;;;;16.98;63.70;101303.04;107994;1249;74498;-64
2022/05/27 04:47:22;;;;;;;12.20;6.70;;;;;;;17.12;63.72;101303.15;106935;1251;72941;-70
2022/05/27 04:49:51;;;;;;;10.80;6.00;;;;;;;17.24;63.13;101303.09;107042;1250;71163;-68
2022/05/27 04:52:27;;;;;;;7.70;5.20;;;;;;;17.42;62.73;101304.44;107070;1249;72474;-68
2022/05/27 04:55:00;;;;;;;13.50;6.40;;;;;;;17.56;61.87;101306.30;107036;1249;59156;-70
2022/05/27 04:57:34;;;;;;;8.30;5.40;;;;;;;17.65;61.50;101308.68;107064;1250;61876;-70
2022/05/27 05:00:16;;;;;;;9.40;5.30;;;;;;;17.71;61.42;101304.38;107157;1249;74393;-70
2022/05/27 05:02:45;;;;;;;10.80;5.90;;;;;;;17.81;60.81;101300.89;107185;1249;72925;-70
2022/05/27 05:05:17;;;;;;;16.40;6.20;;;;;;;17.82;60.23;101300.96;107211;1250;71343;-68
2022/05/27 05:07:55;;;;;;;13.20;6.40;;;;;;;18.02;60.75;101299.60;107311;1249;74483;-69
2022/05/27 05:10:24;;;;;;;11.30;5.40;;;;;;;18.14;59.51;101298.77;107266;1250;59033;-69
2022/05/27 05:12:54;;;;;;;13.80;5.60;;;;;;;18.34;59.05;101298.98;107092;1250;61245;-68
2022/05/27 05:15:25;;;;;;;9.70;5.50;;;;;;;18.40;58.39;101298.61;106888;1251;73655;-68
2022/05/27 05:17:54;;;;;;;8.10;4.50;;;;;;;18.51;58.11;101296.10;107143;1250;61420;-70
2022/05/27 05:20:31;;;;;;;10.80;4.80;;;;;;;18.68;58.12;101294.31;107031;1251;70468;-69
2022/05/27 05:23:00;;;;;;;11.30;5.30;;;;;;;18.74;57.88;101293.15;107130;1251;63904;-70
2022/05/27 05:25:29;;;;;;;10.80;4.90;;;;;;;18.82;57.98;101293.52;107333;1250;59067;-70
2022/05/27 05:27:58;;;;;;;11.70;4.40;;;;;;;18.90;57.50;101293.21;107191;1250;59165;-70
2022/05/27 05:30:27;;;;;;;12.10;4.30;;;;;;;19.06;56.79;101290.60;107354;1249;73663;-70
2022/05/27 05:32:56;;;;;;;12.00;4.20;;;;;;;19.15;55.11;101288.23;107275;1247;70461;-69
2022/05/27 05:35:25;;;;;;;6.20;4.10;;;;;;;19.23;54.53;101287.67;107275;1249;71359;-71
2022/05/27 05:37:53;;;;;;;9.60;3.60;;;;;;;19.38;53.59;101285.44;107207;1251;75291;-69
2022/05/27 05:40:23;;;;;;;6.40;2.60;;;;;;;19.58;52.55;101284.14;107129;1250;60929;-68
2022/05/27 05:42:52;;;;;;;9.80;2.50;;;;;;;19.64;51.40;101291.90;107195;1249;60774;-69
2022/05/27 05:45:21;;;;;;;5.20;2.40;;;;;;;19.71;51.00;101290.60;107221;1249;63333;-69
2022/05/27 05:47:50;;;;;;;5.40;2.40;;;;;;;19.82;50.80;101291.03;107200;1249;61712;-68
2022/05/27 05:50:19;;;;;;;8.70;3.30;;;;;;;19.91;50.13;101290.02;107262;1250;70301;-68
2022/05/27 05:52:48;;;;;;;5.80;2.10;;;;;;;19.96;49.79;101292.59;107093;1250;73520;-70
2022/05/27 05:55:18;;;;;;;4.70;2.30;;;;;;;19.99;49.58;101288.20;107076;1250;58923;-67
2022/05/27 05:57:49;;;;;;;5.50;2.90;;;;;;;20.13;49.08;101291.02;106454;1250;853513;-70
2022/05/27 06:00:24;;;;;;;10.10;3.60;;;;;;;20.16;49.40;101290.92;107123;1250;72092;-69
2022/05/27 06:02:53;;;;;;;7.70;3.30;;;;;;;20.13;49.77;101290.99;107292;1249;72000;-68
2022/05/27 06:05:24;;;;;;;4.20;2.20;;;;;;;20.19;48.66;101292.40;107213;1250;70815;-70
2022/05/27 06:07:56;;;;;;;4.80;2.40;;;;;;;20.29;47.68;101288.60;107123;1251;74061;-69
2022/05/27 06:10:25;;;;;;;7.00;2.70;;;;;;;20.41;48.00;101288.31;107284;1248;58357;-69
2022/05/27 06:12:55;;;;;;;7.60;2.90;;;;;;;20.40;48.15;101287.52;107122;1250;61301;-69
2022/05/27 06:15:23;;;;;;;7.40;2.90;;;;;;;20.33;48.91;101284.34;107248;1250;72357;-69
2022/05/27 06:17:52;;;;;;;2.90;1.80;;;;;;;20.35;46.87;101288.38;107271;1250;73293;-70
2022/05/27 06:20:22;;;;;;;4.00;1.80;;;;;;;20.45;46.32;101285.55;107314;1250;59728;-70
2022/05/27 06:22:50;;;;;;;4.30;1.80;;;;;;;20.54;45.75;101283.27;107308;1249;73987;-70
2022/05/27 06:25:23;;;;;;;5.50;1.90;;;;;;;20.67;46.00;101282.95;107305;1249;57703;-68
2022/05/27 06:34:23;;;;;;;3.70;1.80;;;;;;;20.82;45.55;101283.83;107362;1250;59092;-68
2022/05/27 06:36:19;;;;;;;5.60;2.10;;;;;;;21.11;43.76;101281.69;107317;1248;69776;-71
2022/05/27 06:38:48;;;;;;;5.30;1.80;;;;;;;21.21;42.91;101279.47;107377;1250;71588;-71
2022/05/27 06:41:17;;;;;;;3.70;1.90;;;;;;;21.25;43.46;101275.79;107233;1250;58782;-66
2022/05/27 06:43:46;;;;;;;3.50;1.80;;;;;;;21.34;43.05;101275.48;107258;1250;58921;-67
2022/05/27 06:46:15;;;;;;;6.60;1.60;;;;;;;21.42;42.90;101277.66;107370;1249;72943;-68
2022/05/27 06:48:45;;;;;;;3.30;1.90;;;;;;;21.46;42.04;101270.91;107258;1250;72009;-69
2022/05/27 06:51:14;;;;;;;1.90;1.50;;;;;;;21.58;41.72;101270.56;107330;1250;59620;-69
2022/05/27 06:53:43;;;;;;;3.50;1.40;;;;;;;21.67;41.37;101267.42;107195;1250;72826;-70
2022/05/27 06:56:13;;;;;;;4.20;1.60;;;;;;;21.70;41.66;101261.13;107562;1246;59036;-67
2022/05/27 06:58:43;;;;;;;4.20;1.70;;;;;;;21.80;41.80;101258.91;107470;1247;58997;-70
2022/05/27 07:01:12;;;;;;;2.90;1.50;;;;;;;21.99;40.23;101258.27;107377;1247;72441;-69
2022/05/27 07:03:42;;;;;;;3.80;1.50;;;;;;;22.00;40.10;101255.35;107486;1246;70897;-70
2022/05/27 07:06:13;;;;;;;3.50;1.50;;;;;;;22.07;40.21;101252.70;107635;1246;70498;-70
2022/05/27 07:08:42;;;;;;;3.20;1.40;;;;;;;22.14;39.69;101251.89;107587;1246;74362;-71
2022/05/27 07:11:11;;;;;;;3.90;1.50;;;;;;;22.17;39.38;101254.84;107592;1246;61476;-70
2022/05/27 07:13:41;;;;;;;2.30;1.60;;;;;;;22.10;39.49;101250.44;107592;1246;61471;-67
2022/05/27 07:16:10;;;;;;;3.40;1.50;;;;;;;22.15;39.53;101245.67;107640;1246;63006;-66
2022/05/27 07:18:39;;;;;;;2.80;1.60;;;;;;;22.21;39.35;101244.98;107474;1247;61726;-67
2022/05/27 07:21:08;;;;;;;3.20;1.40;;;;;;;22.27;39.64;101244.61;107467;1247;67907;-65
2022/05/27 07:23:37;;;;;;;6.00;2.00;;;;;;;22.35;38.98;101237.81;107530;1246;63915;-65
2022/05/27 07:26:07;;;;;;;8.40;2.00;;;;;;;22.34;38.79;101230.73;107521;1246;57487;-67
2022/05/27 07:28:35;;;;;;;5.20;1.70;;;;;;;22.48;38.90;101229.25;107607;1246;60630;-66
2022/05/27 07:31:05;;;;;;;4.20;1.60;;;;;;;22.58;38.54;101227.23;107475;1247;63267;-70
2022/05/27 07:33:40;;;;;;;3.50;1.50;;;;;;;22.68;38.65;101219.86;107617;1246;73208;-70
2022/05/27 07:36:08;;;;;;;2.90;1.30;;;;;;;22.84;38.24;101224.54;107535;1246;71317;-70
2022/05/27 07:38:39;;;;;;;3.30;1.40;;;;;;;22.87;37.86;101223.00;107545;1246;73857;-69
2022/05/27 07:41:08;;;;;;;2.70;1.40;;;;;;;23.01;37.97;101224.94;107475;1246;61417;-72
2022/05/27 07:43:36;;;;;;;7.30;2.20;;;;;;;22.99;37.26;101211.78;107440;1246;61580;-70
2022/05/27 07:46:06;;;;;;;7.00;1.70;;;;;;;23.03;37.29;101216.19;107279;1246;73357;-71
2022/05/27 07:48:37;;;;;;;2.50;1.40;;;;;;;23.04;36.94;101213.54;107426;1246;61231;-68
2022/05/27 07:51:12;;;;;;;2.60;1.40;;;;;;;23.01;37.17;101208.73;107301;1247;70539;-69
2022/05/27 07:53:41;;;;;;;2.80;1.20;;;;;;;22.86;37.02;101204.17;107292;1247;73250;-67
2022/05/27 07:56:11;;;;;;;6.50;1.40;;;;;;;22.84;37.19;101200.21;107328;1247;59191;-67
2022/05/27 07:58:42;;;;;;;3.30;1.60;;;;;;;22.99;37.31;101200.79;107449;1246;57472;-71
2022/05/27 08:01:11;;;;;;;5.50;1.80;;;;;;;23.19;37.04;101200.88;107214;1247;73413;-70
2022/05/27 08:03:41;;;;;;;2.30;1.30;;;;;;;23.35;36.42;101199.52;107407;1246;61405;-68
2022/05/27 08:06:10;;;;;;;2.10;1.30;;;;;;;23.43;36.29;101195.20;107309;1247;69753;-69
2022/05/27 08:08:39;;;;;;;4.90;1.30;;;;;;;23.43;36.48;101195.64;107399;1246;64019;-69
2022/05/27 08:11:08;;;;;;;2.30;1.40;;;;;;;23.43;36.38;101195.54;107416;1246;58879;-70
2022/05/27 08:13:39;;;;;;;3.50;1.60;;;;;;;23.54;36.54;101189.42;107266;1246;61165;-69
2022/05/27 08:16:09;;;;;;;3.90;1.40;;;;;;;23.58;35.97;101193.05;107313;1246;72032;-68
2022/05/27 08:18:38;;;;;;;3.40;1.70;;;;;;;23.58;35.76;101188.25;107411;1246;60696;-68
2022/05/27 08:21:11;;;;;;;3.40;1.50;;;;;;;23.58;35.75;101180.67;107559;1246;70020;-70
2022/05/27 08:23:40;;;;;;;3.50;1.50;;;;;;;23.57;36.28;101179.69;107587;1246;63962;-70
2022/05/27 08:26:09;;;;;;;4.30;1.80;;;;;;;23.64;35.49;101179.43;107449;1246;61376;-71
2022/05/27 08:28:38;;;;;;;4.10;1.80;;;;;;;23.81;35.54;101180.39;107564;1246;60188;-70
2022/05/27 08:31:09;;;;;;;4.60;2.50;;;;;;;23.83;35.57;101179.02;107491;1246;63859;-70
2022/05/27 08:39:14;;;;;;;3.70;1.90;;;;;;;24.06;35.55;101172.15;107503;1246;63100;-70
2022/05/27 08:42:16;;;;;;;5.20;1.90;;;;;;;24.21;34.97;101169.98;107507;1246;58895;-71
2022/05/27 08:45:10;;;;;;;3.60;2.10;;;;;;;24.32;34.82;101164.24;107546;1246;58583;-71
2022/05/27 08:47:49;;;;;;;2.60;1.70;;;;;;;24.17;34.53;101160.87;107539;1246;72561;-71
2022/05/27 08:50:33;;;;;;;4.00;1.60;;;;;;;24.22;34.70;101158.98;107577;1246;69926;-70
2022/05/27 08:53:20;;;;;;;2.70;1.70;;;;;;;24.40;34.01;101151.92;107618;1246;59287;-70
2022/05/27 09:01:56;;;;;;;4.70;1.40;;;;;;;24.53;33.26;101140.92;107479;1246;59494;-69
2022/05/27 09:04:50;;;;;;;4.40;1.60;;;;;;;24.41;33.57;101136.77;107390;1246;62928;-69
2022/05/27 09:07:39;;;;;;;3.20;1.50;;;;;;;24.52;33.23;101139.80;107512;1246;72617;-68
2022/05/27 09:10:32;;;;;;;2.00;1.20;;;;;;;24.47;33.77;101133.27;107502;1247;61626;-69
2022/05/27 09:13:35;;;;;;;2.30;1.10;;;;;;;24.50;32.18;101136.92;107478;1246;73328;-67
2022/05/27 09:16:37;;;;;;;5.50;1.50;;;;;;;24.44;32.51;101127.85;107536;1246;61282;-69
2022/05/27 09:19:50;;;;;;;3.80;1.30;;;;;;;24.67;32.37;101128.42;107650;1247;58978;-70
2022/05/27 09:22:50;;;;;;;3.50;1.70;;;;;;;24.78;32.27;101124.86;107500;1247;63387;-71
2022/05/27 09:25:42;;;;;;;3.30;1.00;;;;;;;24.75;32.22;101116.77;107619;1247;61998;-72
2022/05/27 09:28:47;;;;;;;1.70;1.10;;;;;;;24.79;31.97;101113.44;107637;1247;70974;-70
2022/05/27 09:31:47;;;;;;;1.60;1.00;;;;;;;24.96;31.74;101104.30;107499;1246;74276;-72
2022/05/27 09:34:16;;;;;;;2.80;1.60;;;;;;;25.00;31.92;101100.96;107507;1246;59169;-65
2022/05/27 09:36:53;;;;;;;5.60;1.60;;;;;;;25.22;32.07;101092.95;107402;1247;61420;-68
2022/05/27 09:39:24;;;;;;;3.20;1.40;;;;;;;25.29;31.91;101096.71;107587;1246;63198;-64
2022/05/27 09:42:24;;;;;;;3.20;1.20;;;;;;;25.47;31.15;101089.75;107638;1246;73513;-64
2022/05/27 09:44:56;;;;;;;2.70;1.50;;;;;;;25.70;31.15;101078.73;107488;1246;69824;-67
2022/05/27 09:47:36;;;;;;;6.10;1.50;;;;;;;25.83;31.24;101081.80;107597;1246;75416;-68
2022/05/27 09:50:26;;;;;;;2.20;1.20;;;;;;;25.75;31.77;101084.16;107520;1246;61256;-66
2022/05/27 09:53:00;;;;;;;3.60;1.40;;;;;;;25.76;31.76;101082.20;107294;1246;61844;-65
2022/05/27 09:55:46;;;;;;;4.30;1.30;;;;;;;25.80;31.26;101078.58;107528;1246;72766;-71
2022/05/27 09:58:27;;;;;;;3.90;1.70;;;;;;;25.70;31.44;101072.44;107605;1247;61987;-68
2022/05/27 10:00:55;;;;;;;4.20;1.50;;;;;;;25.65;31.57;101079.29;107558;1247;61066;-67
2022/05/27 10:03:37;;;;;;;3.10;1.60;;;;;;;25.55;31.67;101073.38;107697;1247;65024;-66
2022/05/27 10:06:08;;;;;;;3.70;1.20;;;;;;;25.43;32.22;101074.69;107596;1246;58776;-66
2022/05/27 10:08:59;;;;;;;4.10;1.70;;;;;;;25.45;32.19;101066.97;107618;1245;60510;-61
2022/05/27 10:11:49;;;;;;;2.80;1.20;;;;;;;25.87;31.48;101060.02;107679;1246;63579;-65
2022/05/27 10:14:33;;;;;;;3.50;1.60;;;;;;;26.25;31.32;101051.02;107542;1246;71533;-62
2022/05/27 10:17:11;;;;;;;3.00;1.30;;;;;;;26.51;31.37;101045.69;107690;1246;71109;-69
2022/05/27 10:19:47;;;;;;;2.10;1.20;;;;;;;26.83;30.74;101044.61;107590;1245;75383;-69
2022/05/27 10:22:29;;;;;;;5.40;1.50;;;;;;;27.11;29.10;101039.92;107593;1246;61535;-67
2022/05/27 10:25:02;;;;;;;1.40;1.00;;;;;;;27.37;28.59;101037.63;107704;1246;57635;-67
2022/05/27 10:27:39;;;;;;;4.90;1.60;;;;;;;27.36;28.76;101024.19;107658;1246;63120;-68
2022/05/27 10:30:28;;;;;;;3.80;1.30;;;;;;;27.41;28.52;101027.46;107564;1246;72270;-67
2022/05/27 10:33:20;;;;;;;3.30;1.50;;;;;;;27.52;28.52;101021.67;107639;1246;71705;-65
2022/05/27 10:35:52;;;;;;;3.40;1.30;;;;;;;27.47;28.76;101013.83;107540;1246;75134;-69
2022/05/27 10:38:40;;;;;;;3.20;1.10;;;;;;;27.57;28.50;101004.36;107544;1246;59009;-68
2022/05/27 10:41:22;;;;;;;2.40;1.20;;;;;;;27.31;28.73;100998.27;107558;1246;60365;-68
2022/05/27 10:44:21;;;;;;;1.60;1.10;;;;;;;27.15;28.70;101003.86;107593;1246;63675;-69
2022/05/27 10:46:56;;;;;;;3.60;1.30;;;;;;;27.09;28.88;100992.58;107580;1246;61994;-63
2022/05/27 10:49:33;;;;;;;1.60;1.10;;;;;;;27.14;28.71;100986.80;107581;1246;69727;-68
2022/05/27 10:52:30;;;;;;;2.50;1.20;;;;;;;27.34;27.79;100990.04;107575;1246;63807;-68
2022/05/27 10:55:25;;;;;;;3.00;0.80;;;;;;;27.68;26.76;100979.15;107466;1246;60351;-68
2022/05/27 11:04:39;;;;;;;3.90;0.90;;;;;;;28.80;24.76;100964.86;107552;1246;62108;-66
2022/05/27 11:07:44;;;;;;;1.70;0.90;;;;;;;28.65;25.21;100945.46;107446;1246;70487;-65
2022/05/27 11:10:29;;;;;;;3.50;1.40;;;;;;;28.26;25.86;100939.20;107525;1246;63666;-63
2022/05/27 11:17:11;;;;;;;2.70;1.00;;;;;;;29.47;23.76;100934.99;107330;1246;61371;-62
2022/05/27 11:20:08;;;;;;;3.80;0.90;;;;;;;29.55;23.67;100932.77;107503;1246;73352;-67
2022/05/27 11:22:52;;;;;;;3.90;1.20;;;;;;;29.24;23.96;100926.84;107484;1246;73329;-69
2022/05/27 11:25:58;;;;;;;2.70;1.20;;;;;;;29.22;24.26;100919.03;107439;1245;70331;-67
2022/05/27 11:28:52;;;;;;;5.50;1.60;;;;;;;29.70;23.55;100913.80;107374;1247;63523;-68
2022/05/27 11:31:55;;;;;;;2.00;0.90;;;;;;;29.97;23.77;100908.11;107507;1246;59092;-69
2022/05/27 11:34:59;;;;;;;2.20;1.10;;;;;;;30.33;23.13;100901.44;107652;1246;60586;-66
2022/05/27 11:37:46;;;;;;;1.80;1.00;;;;;;;30.53;22.71;100897.16;107525;1246;63742;-67
2022/05/27 11:41:08;;;;;;;3.10;1.00;;;;;;;30.39;22.84;100890.98;107516;1246;60964;-67
2022/05/27 11:43:59;;;;;;;3.30;1.20;;;;;;;30.14;23.51;100876.58;108154;1246;70365;-69
2022/05/27 11:46:36;;;;;;;2.60;1.10;;;;;;;30.79;23.05;100876.06;107468;1247;62987;-67
2022/05/27 11:49:17;;;;;;;3.10;1.10;;;;;;;31.58;21.50;100880.26;107404;1246;60421;-67
2022/05/27 11:52:03;;;;;;;4.70;1.30;;;;;;;31.67;21.33;100872.97;107505;1246;59156;-68
2022/05/27 11:54:51;;;;;;;1.30;0.80;;;;;;;31.74;21.03;100864.77;107473;1247;63407;-68
2022/05/27 11:57:26;;;;;;;3.10;1.50;;;;;;;31.80;21.32;100861.66;107485;1246;61546;-65
2022/05/27 12:00:07;;;;;;;5.00;1.00;;;;;;;32.05;20.77;100863.21;107541;1246;59204;-71
2022/05/27 12:03:18;;;;;;;1.80;1.00;;;;;;;31.86;20.75;100855.00;107379;1246;73629;-67
2022/05/27 12:05:54;;;;;;;1.40;0.90;;;;;;;31.93;20.91;100855.70;107490;1246;58988;-68
2022/05/27 12:08:34;;;;;;;1.80;1.00;;;;;;;32.51;20.03;100849.82;107492;1246;61295;-68
2022/05/27 12:11:09;;;;;;;4.50;1.10;;;;;;;32.50;20.42;100842.86;107424;1246;73293;-68
2022/05/27 12:13:56;;;;;;;5.00;1.30;;;;;;;32.44;20.55;100842.20;107441;1246;62298;-71
2022/05/27 12:16:32;;;;;;;3.00;1.60;;;;;;;31.89;21.28;100838.30;107485;1246;60089;-67
2022/05/27 12:19:08;;;;;;;3.70;1.40;;;;;;;31.56;21.65;100838.18;107556;1246;63844;-66
2022/05/27 12:21:43;;;;;;;5.70;1.50;;;;;;;31.60;21.56;100832.34;107474;1246;61304;-65
2022/05/27 12:24:36;;;;;;;1.40;1.00;;;;;;;31.55;22.11;100823.36;107556;1246;59032;-65
2022/05/27 12:27:07;;;;;;;2.80;1.30;;;;;;;32.42;21.24;100817.29;107500;1246;62203;-66
2022/05/27 12:29:36;;;;;;;3.10;1.20;;;;;;;32.42;20.90;100816.27;107385;1247;70845;-66
2022/05/27 12:32:10;;;;;;;2.20;0.90;;;;;;;31.31;21.92;100814.34;107471;1245;69564;-68
2022/05/27 12:34:49;;;;;;;2.50;1.00;;;;;;;31.42;21.53;100805.45;107462;1246;73410;-69
2022/05/27 12:37:28;;;;;;;3.90;1.40;;;;;;;31.03;22.51;100795.30;107644;1246;60476;-66
2022/05/27 12:40:19;;;;;;;1.60;0.80;;;;;;;30.88;22.72;100795.52;107682;1246;59036;-67
2022/05/27 12:42:55;;;;;;;4.90;1.20;;;;;;;30.72;22.99;100783.45;107568;1246;74232;-66